createdAt,value
2022-08-25T00:01:55.324Z,20.02
2022-08-25T00:07:31.208Z,19.88
2022-08-25T00:13:08.825Z,19.71
2022-08-25T00:18:45.842Z,19.59
2022-08-25T00:24:38.471Z,19.63
2022-08-25T00:30:16.878Z,19.57
2022-08-25T00:35:52.731Z,19.84
2022-08-25T00:41:27.286Z,19.45
2022-08-25T00:49:48.004Z,19.38
2022-08-25T00:55:24.985Z,19.35
2022-08-25T01:03:36.442Z,19.34
2022-08-25T01:09:11.064Z,19.22
2022-08-25T01:14:40.644Z,19.13
2022-08-25T01:17:34.910Z,19.11
2022-08-25T01:26:02.038Z,18.99
2022-08-25T01:31:31.072Z,18.89
2022-08-25T01:37:13.739Z,18.84
2022-08-25T01:42:55.790Z,18.88
2022-08-25T01:45:49.554Z,18.83
2022-08-25T01:51:25.679Z,18.85
2022-08-25T01:54:14.678Z,18.84
2022-08-25T02:02:52.265Z,18.80
2022-08-25T02:08:27.227Z,18.69
2022-08-25T02:11:16.240Z,18.53
2022-08-25T02:16:48.863Z,18.50
2022-08-25T02:22:23.338Z,18.46
2022-08-25T02:27:54.780Z,18.53
2022-08-25T02:33:29.256Z,18.44
2022-08-25T02:39:16.059Z,18.58
2022-08-25T02:44:54.154Z,18.29
2022-08-25T02:50:21.518Z,18.06
2022-08-25T02:55:58.392Z,18.34
2022-08-25T03:01:30.917Z,17.91
2022-08-25T03:04:20.031Z,17.85
2022-08-25T03:07:08.556Z,17.86
2022-08-25T03:09:58.627Z,17.80
2022-08-25T03:12:48.026Z,17.81
2022-08-25T03:18:18.172Z,17.87
2022-08-25T03:23:57.043Z,18.04
2022-08-25T03:29:29.786Z,18.16
2022-08-25T03:35:02.915Z,18.07
2022-08-25T03:37:51.817Z,17.98
2022-08-25T03:43:39.825Z,17.82
2022-08-25T03:46:30.210Z,17.67
2022-08-25T03:52:05.465Z,17.84
2022-08-25T03:57:39.028Z,17.70
2022-08-25T04:00:27.393Z,17.65
2022-08-25T04:03:15.943Z,17.75
2022-08-25T04:08:43.220Z,17.62
2022-08-25T04:14:16.699Z,17.49
2022-08-25T04:19:47.887Z,17.28
2022-08-25T04:25:21.421Z,17.34
2022-08-25T04:28:10.875Z,17.33
2022-08-25T04:33:42.566Z,17.20
2022-08-25T04:39:20.134Z,17.25
2022-08-25T04:44:57.381Z,17.37
2022-08-25T04:50:39.727Z,17.43
2022-08-25T04:53:28.292Z,17.41
2022-08-25T04:58:58.338Z,17.46
2022-08-25T05:07:47.568Z,17.57
2022-08-25T05:10:38.613Z,17.53
2022-08-25T05:16:13.926Z,17.66
2022-08-25T05:21:51.350Z,17.67
2022-08-25T05:24:43.302Z,17.66
2022-08-25T05:30:21.972Z,19.35
2022-08-25T05:35:53.072Z,21.75
2022-08-25T05:38:42.026Z,22.46
2022-08-25T05:44:21.303Z,23.69
2022-08-25T05:47:09.617Z,23.71
2022-08-25T05:49:57.503Z,23.38
2022-08-25T05:52:47.817Z,22.73
2022-08-25T05:55:36.963Z,22.11
2022-08-25T05:58:27.825Z,21.79
2022-08-25T06:01:43.318Z,21.28
2022-08-25T06:04:32.815Z,20.95
2022-08-25T06:07:21.184Z,20.47
2022-08-25T06:10:12.705Z,20.29
2022-08-25T06:13:01.268Z,19.96
2022-08-25T06:18:34.638Z,20.03
2022-08-25T06:24:15.356Z,19.94
2022-08-25T06:27:02.773Z,19.92
2022-08-25T06:32:40.715Z,19.85
2022-08-25T06:38:17.420Z,19.99
2022-08-25T06:43:48.885Z,19.94
2022-08-25T06:49:18.807Z,20.10
2022-08-25T06:57:35.157Z,20.26
2022-08-25T07:03:04.885Z,21.20
2022-08-25T07:08:43.877Z,22.71
2022-08-25T07:23:15.200Z,23.53
2022-08-25T07:26:21.535Z,23.44
2022-08-25T07:31:49.363Z,23.65
2022-08-25T07:37:47.999Z,23.63
2022-08-25T07:43:04.751Z,23.99
2022-08-25T07:45:55.399Z,23.99
2022-08-25T07:51:32.574Z,23.97
2022-08-25T07:59:51.830Z,24.46
2022-08-25T08:02:40.997Z,24.58
2022-08-25T08:08:19.010Z,24.67
2022-08-25T08:13:58.030Z,25.07
2022-08-25T08:16:46.327Z,24.90
2022-08-25T08:22:20.592Z,25.09
2022-08-25T08:27:58.821Z,24.85
2022-08-25T08:33:32.690Z,24.74
2022-08-25T08:39:02.830Z,24.83
2022-08-25T08:45:09.742Z,24.61
2022-08-25T08:51:00.405Z,24.83
2022-08-25T08:56:43.612Z,25.09
2022-08-25T09:02:39.141Z,24.80
2022-08-25T09:05:12.236Z,24.98
2022-08-25T09:10:46.100Z,25.03
2022-08-25T09:16:48.438Z,24.88
2022-08-25T09:20:20.675Z,25.10
2022-08-25T09:25:58.044Z,25.24
2022-08-25T09:34:26.034Z,25.48
2022-08-25T09:37:16.028Z,25.65
2022-08-25T09:42:57.979Z,25.63
2022-08-25T09:48:39.063Z,25.41
2022-08-25T09:51:31.348Z,25.54
2022-08-25T09:54:25.520Z,25.77
2022-08-25T10:00:21.609Z,25.92
2022-08-25T10:03:13.601Z,25.93
2022-08-25T10:06:13.271Z,25.96
2022-08-25T10:11:49.497Z,26.01
2022-08-25T10:17:30.302Z,26.57
2022-08-25T10:23:14.908Z,26.99
2022-08-25T10:31:55.328Z,27.24
2022-08-25T10:37:54.178Z,26.86
2022-08-25T10:40:46.503Z,26.91
2022-08-25T10:46:18.883Z,27.49
2022-08-25T10:49:09.229Z,27.69
2022-08-25T10:54:47.666Z,27.69
2022-08-25T11:00:31.763Z,27.66
2022-08-25T11:06:09.991Z,28.07
2022-08-25T11:11:46.252Z,28.21
2022-08-25T11:17:25.919Z,28.34
2022-08-25T11:20:19.811Z,28.36
2022-08-25T11:25:53.818Z,28.34
2022-08-25T11:31:41.527Z,28.60
2022-08-25T11:37:21.332Z,28.68
2022-08-25T11:43:25.951Z,28.45
2022-08-25T11:49:31.518Z,28.71
2022-08-25T12:02:06.811Z,28.23
2022-08-25T12:08:23.862Z,28.70
2022-08-25T12:13:58.205Z,28.90
2022-08-25T12:26:00.022Z,29.07
2022-08-25T12:32:39.022Z,29.45
2022-08-25T12:41:08.960Z,29.53
2022-08-25T12:46:47.453Z,29.39
2022-08-25T12:52:27.998Z,29.67
2022-08-25T12:58:05.167Z,29.77
2022-08-25T13:04:09.398Z,29.89
2022-08-25T13:07:06.652Z,29.91
2022-08-25T13:10:24.129Z,30.09
2022-08-25T13:16:09.840Z,29.91
2022-08-25T13:21:46.055Z,29.56
2022-08-25T13:27:29.471Z,29.76
2022-08-25T13:30:28.515Z,29.86
2022-08-25T13:33:23.701Z,29.88
2022-08-25T13:44:39.775Z,29.61
2022-08-25T13:50:33.347Z,29.87
2022-08-25T13:59:06.278Z,30.04
2022-08-25T14:01:57.362Z,29.96
2022-08-25T14:07:35.587Z,30.10
2022-08-25T14:10:36.778Z,30.03
2022-08-25T14:16:30.720Z,30.27
2022-08-25T14:22:10.991Z,29.98
2022-08-25T14:28:07.467Z,30.25
2022-08-25T14:33:50.158Z,30.39
2022-08-25T14:39:34.942Z,30.32
2022-08-25T14:45:17.310Z,30.30
2022-08-25T14:50:54.107Z,29.70
2022-08-25T14:56:31.162Z,29.64
2022-08-25T15:02:12.984Z,29.44
2022-08-25T15:08:04.958Z,29.35
2022-08-25T15:13:36.733Z,29.56
2022-08-25T15:19:15.811Z,29.56
2022-08-25T15:22:04.174Z,29.55
2022-08-25T15:27:41.863Z,29.59
2022-08-25T15:33:19.684Z,29.37
2022-08-25T15:36:11.187Z,29.34
2022-08-25T15:41:46.252Z,29.33
2022-08-25T15:44:36.526Z,29.18
2022-08-25T15:53:02.632Z,29.06
2022-08-25T15:55:52.328Z,28.91
2022-08-25T15:58:49.868Z,28.90
2022-08-25T16:04:14.273Z,28.89
2022-08-25T16:15:37.555Z,29.04
2022-08-25T16:21:18.063Z,28.82
2022-08-25T16:24:08.085Z,28.96
2022-08-25T16:29:42.429Z,28.84
2022-08-25T16:38:07.180Z,28.85
2022-08-25T16:43:36.480Z,28.96
2022-08-25T16:49:16.224Z,28.92
2022-08-25T16:57:39.840Z,28.89
2022-08-25T17:03:34.073Z,28.89
2022-08-25T17:09:01.167Z,28.80
2022-08-25T17:14:36.254Z,28.69
2022-08-25T17:20:12.657Z,28.52
2022-08-25T17:25:52.820Z,28.45
2022-08-25T17:28:42.608Z,28.39
2022-08-25T17:31:32.043Z,28.32
2022-08-25T17:37:07.766Z,28.25
2022-08-25T17:42:42.289Z,28.03
2022-08-25T17:48:12.769Z,27.77
2022-08-25T17:53:47.350Z,27.56
2022-08-25T17:59:21.833Z,27.35
2022-08-25T18:02:10.889Z,27.19
2022-08-25T18:08:03.462Z,27.00
2022-08-25T18:13:37.295Z,26.72
2022-08-25T18:19:09.682Z,26.52
2022-08-25T18:21:57.253Z,26.39
2022-08-25T18:24:47.319Z,26.27
2022-08-25T18:27:36.993Z,26.23
2022-08-25T18:33:15.641Z,26.09
2022-08-25T18:36:04.966Z,26.03
2022-08-25T18:41:42.357Z,25.81
2022-08-25T18:47:11.508Z,25.63
2022-08-25T18:52:46.506Z,25.40
2022-08-25T18:58:19.818Z,25.40
2022-08-25T19:03:53.031Z,25.26
2022-08-25T19:09:25.938Z,25.07
2022-08-25T19:15:00.575Z,24.94
2022-08-25T19:20:30.496Z,24.89
2022-08-25T19:26:13.943Z,24.81
2022-08-25T19:28:59.655Z,24.70
2022-08-25T19:31:49.711Z,24.64
2022-08-25T19:34:42.652Z,24.61
2022-08-25T19:40:20.323Z,24.67
2022-08-25T19:43:08.728Z,24.59
2022-08-25T19:48:42.207Z,24.49
2022-08-25T19:51:31.663Z,24.38
2022-08-25T19:57:11.072Z,24.34
2022-08-25T19:59:59.076Z,24.24
2022-08-25T20:02:48.609Z,24.14
2022-08-25T20:08:30.166Z,24.16
2022-08-25T20:14:05.103Z,24.04
2022-08-25T20:16:54.717Z,24.04
2022-08-25T20:19:43.216Z,24.03
2022-08-25T20:22:34.183Z,24.00
2022-08-25T20:28:12.588Z,23.99
2022-08-25T20:31:00.653Z,23.93
2022-08-25T20:36:41.574Z,23.96
2022-08-25T20:39:29.733Z,23.88
2022-08-25T20:42:21.859Z,24.01
2022-08-25T20:48:01.200Z,23.83
2022-08-25T20:53:39.220Z,23.70
2022-08-25T20:59:13.472Z,23.71
2022-08-25T21:02:05.333Z,23.64
2022-08-25T21:04:57.032Z,23.58
2022-08-25T21:07:48.994Z,23.51
2022-08-25T21:13:43.713Z,23.54
2022-08-25T21:16:39.427Z,23.51
2022-08-25T21:19:31.816Z,23.47
2022-08-25T21:25:08.986Z,23.37
2022-08-25T21:27:58.907Z,23.29
2022-08-25T21:33:53.425Z,23.23
2022-08-25T21:36:44.358Z,23.13
2022-08-25T21:39:33.653Z,22.99
2022-08-25T21:45:27.246Z,23.03
2022-08-25T21:51:07.358Z,22.93
2022-08-25T21:56:49.172Z,22.85
2022-08-25T22:02:22.504Z,22.79
2022-08-25T22:05:13.499Z,22.68
2022-08-25T22:08:03.368Z,22.63
2022-08-25T22:10:52.005Z,22.64
2022-08-25T22:13:43.244Z,22.62
2022-08-25T22:19:18.132Z,22.60
2022-08-25T22:24:50.568Z,22.51
2022-08-25T22:30:29.530Z,22.51
2022-08-25T22:33:18.136Z,22.41
2022-08-25T22:36:14.683Z,22.39
2022-08-25T22:39:04.860Z,22.36
2022-08-25T22:41:56.122Z,22.28
2022-08-25T22:44:45.015Z,22.31
2022-08-25T22:47:34.332Z,22.29
2022-08-25T22:50:22.857Z,22.23
2022-08-25T22:53:11.433Z,22.18
2022-08-25T22:56:02.429Z,22.16
2022-08-25T23:01:39.623Z,22.17
2022-08-25T23:07:17.856Z,22.10
2022-08-25T23:12:56.118Z,22.12
2022-08-25T23:18:31.730Z,22.03
2022-08-25T23:21:41.229Z,21.93
2022-08-25T23:27:15.725Z,22.02
2022-08-25T23:32:51.971Z,22.01
2022-08-25T23:38:28.423Z,21.82
2022-08-25T23:41:18.692Z,21.77
2022-08-25T23:46:54.102Z,21.85
2022-08-25T23:52:31.830Z,22.09
2022-08-25T23:55:19.979Z,21.92
